sensor_id;sensor_type;location;lat;lon;timestamp;pressure;altitude;pressure_sealevel;temperature;humidity
20622;BME280;10470;42.670;23.354;2022-09-02T00:03:49;94571.09;;;21.25;100.00
20622;BME280;10470;42.670;23.354;2022-09-02T00:06:15;94577.41;;;21.44;100.00
20622;BME280;10470;42.670;23.354;2022-09-02T00:08:42;94578.38;;;21.47;100.00
20622;BME280;10470;42.670;23.354;2022-09-02T00:11:11;94577.19;;;21.42;100.00
20622;BME280;10470;42.670;23.354;2022-09-02T00:13:37;94569.41;;;21.41;100.00
20622;BME280;10470;42.670;23.354;2022-09-02T00:16:04;94567.38;;;21.41;100.00
20622;BME280;10470;42.670;23.354;2022-09-02T00:18:29;94569.22;;;21.33;100.00
20622;BME280;10470;42.670;23.354;2022-09-02T00:20:55;94566.63;;;21.41;100.00
20622;BME280;10470;42.670;23.354;2022-09-02T00:23:21;94562.72;;;21.30;100.00
20622;BME280;10470;42.670;23.354;2022-09-02T00:25:46;94575.31;;;21.50;100.00
20622;BME280;10470;42.670;23.354;2022-09-02T00:28:13;94575.69;;;21.41;100.00
20622;BME280;10470;42.670;23.354;2022-09-02T00:30:40;94570.06;;;21.28;100.00
20622;BME280;10470;42.670;23.354;2022-09-02T00:33:06;94583.28;;;21.35;100.00
20622;BME280;10470;42.670;23.354;2022-09-02T00:35:32;94587.44;;;21.28;100.00
20622;BME280;10470;42.670;23.354;2022-09-02T00:37:58;94584.72;;;21.23;100.00
20622;BME280;10470;42.670;23.354;2022-09-02T00:40:24;94585.16;;;21.27;100.00
20622;BME280;10470;42.670;23.354;2022-09-02T00:42:50;94585.06;;;21.38;100.00
20622;BME280;10470;42.670;23.354;2022-09-02T00:45:16;94593.72;;;21.29;100.00
20622;BME280;10470;42.670;23.354;2022-09-02T00:47:43;94597.84;;;21.22;100.00
20622;BME280;10470;42.670;23.354;2022-09-02T00:50:11;94596.56;;;21.23;100.00
20622;BME280;10470;42.670;23.354;2022-09-02T00:52:44;94591.25;;;21.25;100.00
20622;BME280;10470;42.670;23.354;2022-09-02T00:55:14;94593.19;;;21.30;100.00
20622;BME280;10470;42.670;23.354;2022-09-02T00:57:44;94596.31;;;21.21;100.00
20622;BME280;10470;42.670;23.354;2022-09-02T01:00:24;94596.03;;;21.25;100.00
20622;BME280;10470;42.670;23.354;2022-09-02T01:02:55;94592.50;;;21.24;100.00
20622;BME280;10470;42.670;23.354;2022-09-02T01:05:23;94594.69;;;21.31;100.00
20622;BME280;10470;42.670;23.354;2022-09-02T01:07:50;94599.16;;;21.15;100.00
20622;BME280;10470;42.670;23.354;2022-09-02T01:10:19;94593.38;;;20.94;100.00
20622;BME280;10470;42.670;23.354;2022-09-02T01:12:46;94598.56;;;20.79;100.00
20622;BME280;10470;42.670;23.354;2022-09-02T01:15:12;94595.56;;;20.77;100.00
20622;BME280;10470;42.670;23.354;2022-09-02T01:17:42;94588.88;;;20.91;100.00
20622;BME280;10470;42.670;23.354;2022-09-02T01:20:13;94596.47;;;20.85;100.00
20622;BME280;10470;42.670;23.354;2022-09-02T01:22:40;94601.00;;;20.88;100.00
20622;BME280;10470;42.670;23.354;2022-09-02T01:25:10;94600.59;;;20.79;100.00
20622;BME280;10470;42.670;23.354;2022-09-02T01:27:36;94597.94;;;20.92;100.00
20622;BME280;10470;42.670;23.354;2022-09-02T01:30:04;94600.94;;;20.94;100.00
20622;BME280;10470;42.670;23.354;2022-09-02T01:32:30;94593.53;;;20.78;100.00
20622;BME280;10470;42.670;23.354;2022-09-02T01:34:56;94595.63;;;20.71;100.00
20622;BME280;10470;42.670;23.354;2022-09-02T01:37:22;94588.31;;;20.74;100.00
20622;BME280;10470;42.670;23.354;2022-09-02T01:39:48;94586.56;;;20.71;100.00
20622;BME280;10470;42.670;23.354;2022-09-02T01:42:14;94577.06;;;20.66;100.00
20622;BME280;10470;42.670;23.354;2022-09-02T01:44:40;94573.31;;;20.64;100.00
20622;BME280;10470;42.670;23.354;2022-09-02T01:47:26;94569.50;;;20.67;100.00
20622;BME280;10470;42.670;23.354;2022-09-02T01:49:52;94558.81;;;20.77;100.00
20622;BME280;10470;42.670;23.354;2022-09-02T01:52:21;94537.25;;;20.69;100.00
20622;BME280;10470;42.670;23.354;2022-09-02T01:54:47;94555.19;;;20.63;100.00
20622;BME280;10470;42.670;23.354;2022-09-02T01:57:12;94553.00;;;20.56;100.00
20622;BME280;10470;42.670;23.354;2022-09-02T01:59:39;94545.84;;;20.66;100.00
20622;BME280;10470;42.670;23.354;2022-09-02T02:02:06;94538.03;;;20.64;100.00
20622;BME280;10470;42.670;23.354;2022-09-02T02:04:31;94540.38;;;20.60;100.00
20622;BME280;10470;42.670;23.354;2022-09-02T02:06:57;94538.97;;;20.72;100.00
20622;BME280;10470;42.670;23.354;2022-09-02T02:09:23;94541.06;;;20.66;100.00
20622;BME280;10470;42.670;23.354;2022-09-02T02:11:49;94540.88;;;20.83;100.00
20622;BME280;10470;42.670;23.354;2022-09-02T02:14:15;94546.13;;;20.62;100.00
20622;BME280;10470;42.670;23.354;2022-09-02T02:16:40;94542.78;;;20.45;100.00
20622;BME280;10470;42.670;23.354;2022-09-02T02:19:06;94544.56;;;20.42;100.00
20622;BME280;10470;42.670;23.354;2022-09-02T02:21:32;94544.41;;;20.59;100.00
20622;BME280;10470;42.670;23.354;2022-09-02T02:23:58;94550.81;;;20.73;100.00
20622;BME280;10470;42.670;23.354;2022-09-02T02:26:27;94548.38;;;20.64;100.00
20622;BME280;10470;42.670;23.354;2022-09-02T02:28:53;94549.28;;;20.72;100.00
20622;BME280;10470;42.670;23.354;2022-09-02T02:31:19;94556.03;;;20.52;100.00
20622;BME280;10470;42.670;23.354;2022-09-02T02:33:44;94563.72;;;20.65;100.00
20622;BME280;10470;42.670;23.354;2022-09-02T02:36:12;94565.66;;;20.70;100.00
20622;BME280;10470;42.670;23.354;2022-09-02T02:38:39;94566.22;;;20.68;100.00
20622;BME280;10470;42.670;23.354;2022-09-02T02:41:05;94555.88;;;20.69;100.00
20622;BME280;10470;42.670;23.354;2022-09-02T02:43:32;94561.69;;;20.90;100.00
20622;BME280;10470;42.670;23.354;2022-09-02T02:45:58;94558.75;;;20.82;100.00
20622;BME280;10470;42.670;23.354;2022-09-02T02:48:24;94569.72;;;20.69;100.00
20622;BME280;10470;42.670;23.354;2022-09-02T02:50:50;94569.34;;;20.54;100.00
20622;BME280;10470;42.670;23.354;2022-09-02T02:53:16;94567.94;;;20.41;100.00
20622;BME280;10470;42.670;23.354;2022-09-02T02:55:42;94558.97;;;20.60;100.00
20622;BME280;10470;42.670;23.354;2022-09-02T02:58:08;94554.28;;;20.55;100.00
20622;BME280;10470;42.670;23.354;2022-09-02T03:00:34;94554.72;;;20.59;100.00
20622;BME280;10470;42.670;23.354;2022-09-02T03:03:05;94556.22;;;20.60;100.00
20622;BME280;10470;42.670;23.354;2022-09-02T03:05:32;94565.47;;;20.68;100.00
20622;BME280;10470;42.670;23.354;2022-09-02T03:08:00;94576.06;;;20.64;100.00
20622;BME280;10470;42.670;23.354;2022-09-02T03:10:26;94561.47;;;20.63;100.00
20622;BME280;10470;42.670;23.354;2022-09-02T03:12:51;94569.03;;;20.33;100.00
20622;BME280;10470;42.670;23.354;2022-09-02T03:15:18;94564.25;;;20.33;100.00
20622;BME280;10470;42.670;23.354;2022-09-02T03:17:47;94567.31;;;20.29;100.00
20622;BME280;10470;42.670;23.354;2022-09-02T03:20:13;94554.47;;;20.32;100.00
20622;BME280;10470;42.670;23.354;2022-09-02T03:22:41;94551.75;;;20.26;100.00
20622;BME280;10470;42.670;23.354;2022-09-02T03:25:08;94555.78;;;20.25;100.00
20622;BME280;10470;42.670;23.354;2022-09-02T03:27:38;94561.66;;;20.41;100.00
20622;BME280;10470;42.670;23.354;2022-09-02T03:30:06;94561.50;;;20.33;100.00
20622;BME280;10470;42.670;23.354;2022-09-02T03:32:33;94557.06;;;20.24;100.00
20622;BME280;10470;42.670;23.354;2022-09-02T03:35:00;94552.16;;;20.36;100.00
20622;BME280;10470;42.670;23.354;2022-09-02T03:37:26;94553.19;;;20.33;100.00
20622;BME280;10470;42.670;23.354;2022-09-02T03:39:51;94564.66;;;20.18;100.00
20622;BME280;10470;42.670;23.354;2022-09-02T03:42:17;94571.81;;;20.33;100.00
20622;BME280;10470;42.670;23.354;2022-09-02T03:44:42;94568.81;;;20.30;100.00
20622;BME280;10470;42.670;23.354;2022-09-02T03:47:08;94577.81;;;20.37;100.00
20622;BME280;10470;42.670;23.354;2022-09-02T03:49:34;94583.03;;;20.16;100.00
20622;BME280;10470;42.670;23.354;2022-09-02T03:52:00;94585.72;;;20.27;100.00
20622;BME280;10470;42.670;23.354;2022-09-02T03:54:26;94585.66;;;20.33;100.00
20622;BME280;10470;42.670;23.354;2022-09-02T03:56:51;94600.75;;;20.32;100.00
20622;BME280;10470;42.670;23.354;2022-09-02T03:59:17;94602.31;;;20.27;100.00
20622;BME280;10470;42.670;23.354;2022-09-02T04:01:43;94606.84;;;20.24;100.00
20622;BME280;10470;42.670;23.354;2022-09-02T04:04:09;94604.72;;;20.36;100.00
20622;BME280;10470;42.670;23.354;2022-09-02T04:06:35;94607.16;;;20.15;100.00
20622;BME280;10470;42.670;23.354;2022-09-02T04:09:01;94613.47;;;20.16;100.00
20622;BME280;10470;42.670;23.354;2022-09-02T04:11:27;94607.31;;;20.28;100.00
20622;BME280;10470;42.670;23.354;2022-09-02T04:13:53;94610.25;;;20.42;100.00
20622;BME280;10470;42.670;23.354;2022-09-02T04:16:21;94616.84;;;20.33;100.00
20622;BME280;10470;42.670;23.354;2022-09-02T04:18:51;94614.00;;;20.44;100.00
20622;BME280;10470;42.670;23.354;2022-09-02T04:21:17;94609.97;;;20.10;100.00
20622;BME280;10470;42.670;23.354;2022-09-02T04:23:44;94609.94;;;20.15;100.00
20622;BME280;10470;42.670;23.354;2022-09-02T04:26:12;94621.78;;;20.16;100.00
20622;BME280;10470;42.670;23.354;2022-09-02T04:28:39;94619.81;;;20.11;100.00
20622;BME280;10470;42.670;23.354;2022-09-02T04:31:06;94622.00;;;20.18;100.00
20622;BME280;10470;42.670;23.354;2022-09-02T04:33:33;94622.84;;;20.07;100.00
20622;BME280;10470;42.670;23.354;2022-09-02T04:35:59;94615.91;;;20.25;100.00
20622;BME280;10470;42.670;23.354;2022-09-02T04:38:24;94622.75;;;20.18;100.00
20622;BME280;10470;42.670;23.354;2022-09-02T04:40:50;94637.34;;;20.19;100.00
20622;BME280;10470;42.670;23.354;2022-09-02T04:43:15;94631.56;;;20.17;100.00
20622;BME280;10470;42.670;23.354;2022-09-02T04:45:44;94625.13;;;20.03;100.00
20622;BME280;10470;42.670;23.354;2022-09-02T04:48:10;94629.63;;;20.06;100.00
20622;BME280;10470;42.670;23.354;2022-09-02T04:50:37;94634.69;;;20.02;100.00
20622;BME280;10470;42.670;23.354;2022-09-02T04:53:03;94635.63;;;20.10;100.00
20622;BME280;10470;42.670;23.354;2022-09-02T04:55:30;94635.88;;;20.12;100.00
20622;BME280;10470;42.670;23.354;2022-09-02T04:57:56;94630.63;;;20.08;100.00
20622;BME280;10470;42.670;23.354;2022-09-02T05:00:21;94626.00;;;20.22;100.00
20622;BME280;10470;42.670;23.354;2022-09-02T05:02:47;94640.31;;;20.26;100.00
20622;BME280;10470;42.670;23.354;2022-09-02T05:05:12;94645.03;;;20.32;100.00
20622;BME280;10470;42.670;23.354;2022-09-02T05:07:38;94645.25;;;20.34;100.00
20622;BME280;10470;42.670;23.354;2022-09-02T05:10:04;94635.81;;;20.18;100.00
20622;BME280;10470;42.670;23.354;2022-09-02T05:12:31;94641.00;;;20.33;100.00
20622;BME280;10470;42.670;23.354;2022-09-02T05:14:57;94646.25;;;20.36;100.00
20622;BME280;10470;42.670;23.354;2022-09-02T05:17:25;94638.63;;;20.12;100.00
20622;BME280;10470;42.670;23.354;2022-09-02T05:19:51;94647.38;;;20.22;100.00
20622;BME280;10470;42.670;23.354;2022-09-02T05:22:17;94650.25;;;20.05;100.00
20622;BME280;10470;42.670;23.354;2022-09-02T05:24:44;94662.88;;;20.00;100.00
20622;BME280;10470;42.670;23.354;2022-09-02T05:27:10;94655.38;;;19.90;100.00
20622;BME280;10470;42.670;23.354;2022-09-02T05:29:36;94650.63;;;19.90;100.00
20622;BME280;10470;42.670;23.354;2022-09-02T05:32:02;94654.63;;;19.89;100.00
20622;BME280;10470;42.670;23.354;2022-09-02T05:34:28;94654.78;;;20.02;100.00
20622;BME280;10470;42.670;23.354;2022-09-02T05:36:54;94657.34;;;19.95;100.00
20622;BME280;10470;42.670;23.354;2022-09-02T05:39:19;94650.78;;;20.03;100.00
20622;BME280;10470;42.670;23.354;2022-09-02T05:41:44;94646.38;;;19.83;100.00
20622;BME280;10470;42.670;23.354;2022-09-02T05:44:11;94637.75;;;20.28;100.00
20622;BME280;10470;42.670;23.354;2022-09-02T05:46:36;94646.25;;;20.36;100.00
20622;BME280;10470;42.670;23.354;2022-09-02T05:49:03;94647.22;;;20.44;100.00
20622;BME280;10470;42.670;23.354;2022-09-02T05:54:05;94644.56;;;19.92;100.00
20622;BME280;10470;42.670;23.354;2022-09-02T05:56:30;94642.38;;;20.15;100.00
20622;BME280;10470;42.670;23.354;2022-09-02T05:58:56;94638.31;;;20.51;100.00
20622;BME280;10470;42.670;23.354;2022-09-02T06:01:23;94615.72;;;20.47;100.00
20622;BME280;10470;42.670;23.354;2022-09-02T06:03:49;94643.22;;;20.70;100.00
20622;BME280;10470;42.670;23.354;2022-09-02T06:06:16;94642.09;;;20.54;100.00
20622;BME280;10470;42.670;23.354;2022-09-02T06:08:42;94636.97;;;20.64;100.00
20622;BME280;10470;42.670;23.354;2022-09-02T06:11:10;94639.25;;;20.65;100.00
20622;BME280;10470;42.670;23.354;2022-09-02T06:13:39;94644.50;;;20.93;100.00
20622;BME280;10470;42.670;23.354;2022-09-02T06:16:06;94643.00;;;20.92;100.00
20622;BME280;10470;42.670;23.354;2022-09-02T06:18:35;94645.75;;;20.92;100.00
20622;BME280;10470;42.670;23.354;2022-09-02T06:21:02;94639.28;;;21.09;100.00
20622;BME280;10470;42.670;23.354;2022-09-02T06:23:27;94637.66;;;20.70;100.00
20622;BME280;10470;42.670;23.354;2022-09-02T06:25:53;94642.19;;;20.73;100.00
20622;BME280;10470;42.670;23.354;2022-09-02T06:28:18;94648.66;;;20.81;100.00
20622;BME280;10470;42.670;23.354;2022-09-02T06:30:44;94649.41;;;20.82;100.00
20622;BME280;10470;42.670;23.354;2022-09-02T06:33:11;94649.22;;;20.99;100.00
20622;BME280;10470;42.670;23.354;2022-09-02T06:35:39;94660.47;;;21.06;100.00
20622;BME280;10470;42.670;23.354;2022-09-02T06:38:05;94670.72;;;21.17;100.00
20622;BME280;10470;42.670;23.354;2022-09-02T06:40:31;94664.06;;;21.26;100.00
20622;BME280;10470;42.670;23.354;2022-09-02T06:42:56;94668.38;;;21.21;100.00
20622;BME280;10470;42.670;23.354;2022-09-02T06:45:21;94665.69;;;21.15;100.00
20622;BME280;10470;42.670;23.354;2022-09-02T06:47:51;94668.63;;;21.23;100.00
20622;BME280;10470;42.670;23.354;2022-09-02T06:50:18;94666.53;;;21.29;100.00
20622;BME280;10470;42.670;23.354;2022-09-02T06:52:43;94682.31;;;21.15;100.00
20622;BME280;10470;42.670;23.354;2022-09-02T06:55:10;94669.34;;;21.24;100.00
20622;BME280;10470;42.670;23.354;2022-09-02T06:57:36;94668.31;;;21.27;100.00
20622;BME280;10470;42.670;23.354;2022-09-02T07:00:07;94672.06;;;21.29;100.00
20622;BME280;10470;42.670;23.354;2022-09-02T07:02:33;94648.19;;;21.02;100.00
20622;BME280;10470;42.670;23.354;2022-09-02T07:04:59;94677.28;;;20.89;100.00
20622;BME280;10470;42.670;23.354;2022-09-02T07:07:41;94689.81;;;21.21;100.00
20622;BME280;10470;42.670;23.354;2022-09-02T07:10:09;94689.22;;;21.28;100.00
20622;BME280;10470;42.670;23.354;2022-09-02T07:12:37;94683.38;;;21.31;100.00
20622;BME280;10470;42.670;23.354;2022-09-02T07:15:03;94698.88;;;21.46;100.00
20622;BME280;10470;42.670;23.354;2022-09-02T07:17:29;94678.28;;;21.41;100.00
20622;BME280;10470;42.670;23.354;2022-09-02T07:19:55;94687.44;;;21.55;100.00
20622;BME280;10470;42.670;23.354;2022-09-02T07:22:24;94682.53;;;21.42;100.00
20622;BME280;10470;42.670;23.354;2022-09-02T07:24:50;94684.53;;;21.66;100.00
20622;BME280;10470;42.670;23.354;2022-09-02T07:27:16;94689.63;;;21.62;100.00
20622;BME280;10470;42.670;23.354;2022-09-02T07:29:41;94688.66;;;21.10;100.00
20622;BME280;10470;42.670;23.354;2022-09-02T07:32:08;94691.28;;;21.22;100.00
20622;BME280;10470;42.670;23.354;2022-09-02T07:34:34;94692.31;;;21.49;100.00
20622;BME280;10470;42.670;23.354;2022-09-02T07:37:00;94691.91;;;21.58;100.00
20622;BME280;10470;42.670;23.354;2022-09-02T07:39:25;94683.47;;;21.69;100.00
20622;BME280;10470;42.670;23.354;2022-09-02T07:41:51;94685.19;;;21.72;100.00
20622;BME280;10470;42.670;23.354;2022-09-02T07:44:18;94698.97;;;21.59;100.00
20622;BME280;10470;42.670;23.354;2022-09-02T07:46:44;94699.47;;;21.82;100.00
20622;BME280;10470;42.670;23.354;2022-09-02T07:49:11;94698.00;;;21.75;100.00
20622;BME280;10470;42.670;23.354;2022-09-02T07:51:40;94695.75;;;21.74;100.00
20622;BME280;10470;42.670;23.354;2022-09-02T07:54:07;94696.06;;;21.70;100.00
20622;BME280;10470;42.670;23.354;2022-09-02T07:56:33;94698.00;;;21.94;100.00
20622;BME280;10470;42.670;23.354;2022-09-02T07:58:59;94699.66;;;21.84;100.00
20622;BME280;10470;42.670;23.354;2022-09-02T08:01:25;94704.03;;;21.79;100.00
20622;BME280;10470;42.670;23.354;2022-09-02T08:03:51;94705.97;;;21.85;100.00
20622;BME280;10470;42.670;23.354;2022-09-02T08:06:18;94708.66;;;21.71;100.00
20622;BME280;10470;42.670;23.354;2022-09-02T08:08:44;94708.38;;;21.94;100.00
20622;BME280;10470;42.670;23.354;2022-09-02T08:11:10;94720.75;;;21.93;100.00
20622;BME280;10470;42.670;23.354;2022-09-02T08:13:37;94718.56;;;22.04;100.00
20622;BME280;10470;42.670;23.354;2022-09-02T08:16:03;94716.03;;;21.88;100.00
20622;BME280;10470;42.670;23.354;2022-09-02T08:18:29;94709.28;;;21.83;100.00
20622;BME280;10470;42.670;23.354;2022-09-02T08:20:55;94720.50;;;22.10;100.00
20622;BME280;10470;42.670;23.354;2022-09-02T08:23:20;94720.69;;;21.79;100.00
20622;BME280;10470;42.670;23.354;2022-09-02T08:25:46;94719.63;;;22.01;100.00
20622;BME280;10470;42.670;23.354;2022-09-02T08:28:11;94716.09;;;22.01;100.00
20622;BME280;10470;42.670;23.354;2022-09-02T08:30:37;94714.81;;;21.83;100.00
20622;BME280;10470;42.670;23.354;2022-09-02T08:33:03;94715.31;;;21.63;100.00
20622;BME280;10470;42.670;23.354;2022-09-02T08:35:29;94715.13;;;21.79;100.00
20622;BME280;10470;42.670;23.354;2022-09-02T08:37:56;94717.91;;;21.98;100.00
20622;BME280;10470;42.670;23.354;2022-09-02T08:40:24;94717.53;;;22.08;100.00
20622;BME280;10470;42.670;23.354;2022-09-02T08:42:55;94713.69;;;21.73;100.00
20622;BME280;10470;42.670;23.354;2022-09-02T08:45:35;94713.25;;;21.88;100.00
20622;BME280;10470;42.670;23.354;2022-09-02T08:50:48;94716.31;;;21.84;100.00
20622;BME280;10470;42.670;23.354;2022-09-02T08:56:03;94707.16;;;21.89;100.00
20622;BME280;10470;42.670;23.354;2022-09-02T08:58:36;94697.41;;;22.01;100.00
20622;BME280;10470;42.670;23.354;2022-09-02T09:01:13;94703.78;;;22.15;100.00
20622;BME280;10470;42.670;23.354;2022-09-02T09:04:18;94717.53;;;22.08;100.00
20622;BME280;10470;42.670;23.354;2022-09-02T09:09:29;94709.00;;;22.24;100.00
20622;BME280;10470;42.670;23.354;2022-09-02T09:12:08;94698.47;;;22.17;100.00
20622;BME280;10470;42.670;23.354;2022-09-02T09:14:45;94698.94;;;22.54;100.00
20622;BME280;10470;42.670;23.354;2022-09-02T09:19:50;94700.28;;;22.66;100.00
20622;BME280;10470;42.670;23.354;2022-09-02T09:22:21;94697.97;;;22.51;100.00
20622;BME280;10470;42.670;23.354;2022-09-02T09:24:49;94699.47;;;22.20;100.00
20622;BME280;10470;42.670;23.354;2022-09-02T09:27:17;94676.84;;;22.10;100.00
20622;BME280;10470;42.670;23.354;2022-09-02T09:29:44;94691.97;;;22.34;100.00
20622;BME280;10470;42.670;23.354;2022-09-02T09:32:34;94683.75;;;22.87;100.00
20622;BME280;10470;42.670;23.354;2022-09-02T09:35:05;94686.59;;;23.00;100.00
20622;BME280;10470;42.670;23.354;2022-09-02T09:40:00;94687.03;;;23.04;100.00
20622;BME280;10470;42.670;23.354;2022-09-02T09:42:54;94683.75;;;22.87;100.00
20622;BME280;10470;42.670;23.354;2022-09-02T09:48:19;94688.00;;;23.33;100.00
20622;BME280;10470;42.670;23.354;2022-09-02T09:51:09;94681.34;;;23.63;100.00
20622;BME280;10470;42.670;23.354;2022-09-02T09:53:36;94683.38;;;23.89;100.00
20622;BME280;10470;42.670;23.354;2022-09-02T09:58:45;94692.47;;;23.50;100.00
20622;BME280;10470;42.670;23.354;2022-09-02T10:01:31;94694.09;;;23.45;100.00
20622;BME280;10470;42.670;23.354;2022-09-02T10:04:04;94696.13;;;23.45;100.00
20622;BME280;10470;42.670;23.354;2022-09-02T10:09:00;94688.75;;;23.21;100.00
20622;BME280;10470;42.670;23.354;2022-09-02T10:11:35;94691.22;;;23.38;100.00
20622;BME280;10470;42.670;23.354;2022-09-02T10:14:06;94684.13;;;23.63;100.00
20622;BME280;10470;42.670;23.354;2022-09-02T10:19:38;94691.19;;;23.24;100.00
20622;BME280;10470;42.670;23.354;2022-09-02T10:22:36;94693.44;;;23.52;100.00
20622;BME280;10470;42.670;23.354;2022-09-02T10:25:06;94698.38;;;23.60;100.00
20622;BME280;10470;42.670;23.354;2022-09-02T10:31:19;94681.25;;;24.16;100.00
20622;BME280;10470;42.670;23.354;2022-09-02T10:36:44;94689.81;;;24.18;100.00
20622;BME280;10470;42.670;23.354;2022-09-02T10:42:37;94691.25;;;24.33;100.00
20622;BME280;10470;42.670;23.354;2022-09-02T10:47:56;94692.53;;;24.11;100.00
20622;BME280;10470;42.670;23.354;2022-09-02T10:53:49;94689.56;;;23.95;100.00
20622;BME280;10470;42.670;23.354;2022-09-02T10:56:22;94687.78;;;23.71;100.00
20622;BME280;10470;42.670;23.354;2022-09-02T11:01:56;94689.97;;;24.68;100.00
20622;BME280;10470;42.670;23.354;2022-09-02T11:07:13;94681.34;;;25.08;100.00
20622;BME280;10470;42.670;23.354;2022-09-02T11:09:58;94674.00;;;25.47;100.00
20622;BME280;10470;42.670;23.354;2022-09-02T11:12:35;94674.34;;;26.24;100.00
20622;BME280;10470;42.670;23.354;2022-09-02T11:15:18;94682.25;;;26.71;100.00
20622;BME280;10470;42.670;23.354;2022-09-02T11:17:49;94681.66;;;26.50;100.00
20622;BME280;10470;42.670;23.354;2022-09-02T11:20:39;94679.09;;;27.29;100.00
20622;BME280;10470;42.670;23.354;2022-09-02T11:23:16;94672.75;;;26.97;100.00
20622;BME280;10470;42.670;23.354;2022-09-02T11:26:39;94673.50;;;26.52;100.00
20622;BME280;10470;42.670;23.354;2022-09-02T11:28:55;94671.41;;;27.52;100.00
20622;BME280;10470;42.670;23.354;2022-09-02T11:31:35;94673.09;;;27.55;100.00
20622;BME280;10470;42.670;23.354;2022-09-02T11:34:15;94663.06;;;26.98;100.00
20622;BME280;10470;42.670;23.354;2022-09-02T11:36:42;94663.56;;;27.51;100.00
20622;BME280;10470;42.670;23.354;2022-09-02T11:56:02;94632.25;;;27.37;100.00
20622;BME280;10470;42.670;23.354;2022-09-02T11:58:37;94625.00;;;27.18;100.00
20622;BME280;10470;42.670;23.354;2022-09-02T12:01:18;94637.25;;;27.54;100.00
20622;BME280;10470;42.670;23.354;2022-09-02T12:04:27;94627.06;;;26.95;100.00
20622;BME280;10470;42.670;23.354;2022-09-02T12:09:53;94642.25;;;26.09;100.00
20622;BME280;10470;42.670;23.354;2022-09-02T12:23:10;94634.53;;;27.00;100.00
20622;BME280;10470;42.670;23.354;2022-09-02T12:26:05;94624.66;;;27.07;100.00
20622;BME280;10470;42.670;23.354;2022-09-02T12:28:35;94631.75;;;26.77;100.00
20622;BME280;10470;42.670;23.354;2022-09-02T12:36:00;94607.91;;;26.61;100.00
20622;BME280;10470;42.670;23.354;2022-09-02T12:38:32;94609.72;;;26.50;100.00
20622;BME280;10470;42.670;23.354;2022-09-02T12:43:39;94604.56;;;26.62;100.00
20622;BME280;10470;42.670;23.354;2022-09-02T12:46:49;94605.28;;;26.86;100.00
20622;BME280;10470;42.670;23.354;2022-09-02T12:54:54;94592.91;;;26.04;100.00
20622;BME280;10470;42.670;23.354;2022-09-02T12:57:37;94592.19;;;26.11;100.00
20622;BME280;10470;42.670;23.354;2022-09-02T13:00:03;94587.75;;;26.24;100.00
20622;BME280;10470;42.670;23.354;2022-09-02T13:02:42;94585.69;;;26.24;100.00
20622;BME280;10470;42.670;23.354;2022-09-02T13:05:36;94581.41;;;26.23;100.00
20622;BME280;10470;42.670;23.354;2022-09-02T13:13:25;94585.06;;;25.87;100.00
20622;BME280;10470;42.670;23.354;2022-09-02T13:27:32;94592.19;;;25.60;100.00
20622;BME280;10470;42.670;23.354;2022-09-02T13:30:15;94585.09;;;25.51;100.00
20622;BME280;10470;42.670;23.354;2022-09-02T13:32:44;94583.09;;;25.59;100.00
20622;BME280;10470;42.670;23.354;2022-09-02T13:35:24;94585.63;;;25.42;100.00
20622;BME280;10470;42.670;23.354;2022-09-02T13:37:57;94579.47;;;25.07;100.00
20622;BME280;10470;42.670;23.354;2022-09-02T13:40:31;94593.13;;;25.18;100.00
20622;BME280;10470;42.670;23.354;2022-09-02T13:43:21;94590.25;;;24.53;100.00
20622;BME280;10470;42.670;23.354;2022-09-02T13:45:48;94588.34;;;24.69;100.00
20622;BME280;10470;42.670;23.354;2022-09-02T13:48:16;94581.16;;;24.53;100.00
20622;BME280;10470;42.670;23.354;2022-09-02T13:51:08;94605.13;;;24.14;100.00
20622;BME280;10470;42.670;23.354;2022-09-02T13:53:38;94602.69;;;23.76;100.00
20622;BME280;10470;42.670;23.354;2022-09-02T13:56:07;94613.69;;;23.21;100.00
20622;BME280;10470;42.670;23.354;2022-09-02T13:58:40;94608.94;;;22.76;100.00
20622;BME280;10470;42.670;23.354;2022-09-02T14:01:27;94620.94;;;22.97;100.00
20622;BME280;10470;42.670;23.354;2022-09-02T14:03:55;94611.03;;;22.43;100.00
20622;BME280;10470;42.670;23.354;2022-09-02T14:06:24;94622.03;;;22.49;100.00
20622;BME280;10470;42.670;23.354;2022-09-02T14:09:00;94628.97;;;22.42;100.00
20622;BME280;10470;42.670;23.354;2022-09-02T14:11:27;94626.06;;;22.15;100.00
20622;BME280;10470;42.670;23.354;2022-09-02T14:13:55;94641.88;;;22.39;100.00
20622;BME280;10470;42.670;23.354;2022-09-02T14:22:05;94651.53;;;21.81;100.00
20622;BME280;10470;42.670;23.354;2022-09-02T14:24:38;94644.25;;;21.59;100.00
20622;BME280;10470;42.670;23.354;2022-09-02T14:27:15;94648.38;;;21.53;100.00
20622;BME280;10470;42.670;23.354;2022-09-02T14:29:43;94646.28;;;21.59;100.00
20622;BME280;10470;42.670;23.354;2022-09-02T14:32:26;94651.22;;;21.47;100.00
20622;BME280;10470;42.670;23.354;2022-09-02T14:37:52;94656.34;;;22.19;100.00
20622;BME280;10470;42.670;23.354;2022-09-02T14:40:34;94642.69;;;22.21;100.00
20622;BME280;10470;42.670;23.354;2022-09-02T14:43:01;94644.44;;;22.37;100.00
20622;BME280;10470;42.670;23.354;2022-09-02T14:45:29;94643.03;;;22.12;100.00
20622;BME280;10470;42.670;23.354;2022-09-02T14:48:42;94643.00;;;22.31;100.00
20622;BME280;10470;42.670;23.354;2022-09-02T14:50:42;94647.47;;;22.20;100.00
20622;BME280;10470;42.670;23.354;2022-09-02T14:53:09;94652.03;;;21.99;100.00